Terminal Aerodrome Forecast
Issued by NWS Twin Cities, MN

Home | Current Version | Previous Version | Graphics & Text | Print | Product List | Glossary On
Versions: 1 2 3 4 5 6 7 8 9 10 11 12 13 14 15 16
000
FTUS43 KMPX 251100
TAFEAU
TAF
KEAU 251129Z 2512/2612 16008KT P6SM SHRA SCT035 OVC050
     FM251400 18010KT P6SM BKN040
     FM260200 19004KT 4SM BR SCT040
     FM260400 VRB03KT 1SM BR SCT007=

USA.gov is the U.S. government's official web portal to all federal, state and local government web resources and services.